sensor_id;sensor_type;location;lat;lon;timestamp;P1;durP1;ratioP1;P2;durP2;ratioP2
11121;SDS011;5615;49.304;10.576;2024-03-07T00:02:05;52.87;;;32.33;;
11121;SDS011;5615;49.304;10.576;2024-03-07T00:04:32;48.63;;;31.53;;
11121;SDS011;5615;49.304;10.576;2024-03-07T00:07:00;51.70;;;32.23;;
11121;SDS011;5615;49.304;10.576;2024-03-07T00:09:28;48.63;;;30.77;;
11121;SDS011;5615;49.304;10.576;2024-03-07T00:11:57;51.93;;;30.30;;
11121;SDS011;5615;49.304;10.576;2024-03-07T00:14:25;47.93;;;30.03;;
11121;SDS011;5615;49.304;10.576;2024-03-07T00:16:54;45.97;;;29.90;;
11121;SDS011;5615;49.304;10.576;2024-03-07T00:19:23;46.43;;;29.27;;
11121;SDS011;5615;49.304;10.576;2024-03-07T00:21:52;45.10;;;30.20;;
11121;SDS011;5615;49.304;10.576;2024-03-07T00:24:19;50.33;;;29.77;;
11121;SDS011;5615;49.304;10.576;2024-03-07T00:26:48;51.77;;;30.50;;
11121;SDS011;5615;49.304;10.576;2024-03-07T00:29:19;46.80;;;29.90;;
11121;SDS011;5615;49.304;10.576;2024-03-07T00:31:48;48.83;;;30.47;;
11121;SDS011;5615;49.304;10.576;2024-03-07T00:34:18;44.87;;;29.00;;
11121;SDS011;5615;49.304;10.576;2024-03-07T00:36:45;45.60;;;29.93;;
11121;SDS011;5615;49.304;10.576;2024-03-07T00:39:12;50.97;;;30.23;;
11121;SDS011;5615;49.304;10.576;2024-03-07T00:41:39;49.77;;;30.27;;
11121;SDS011;5615;49.304;10.576;2024-03-07T00:44:10;47.00;;;30.10;;
11121;SDS011;5615;49.304;10.576;2024-03-07T00:46:37;45.70;;;28.93;;
11121;SDS011;5615;49.304;10.576;2024-03-07T00:49:04;46.43;;;30.30;;
11121;SDS011;5615;49.304;10.576;2024-03-07T00:51:33;50.50;;;30.20;;
11121;SDS011;5615;49.304;10.576;2024-03-07T00:54:00;47.53;;;29.93;;
11121;SDS011;5615;49.304;10.576;2024-03-07T00:56:27;50.93;;;31.17;;
11121;SDS011;5615;49.304;10.576;2024-03-07T00:58:54;50.83;;;30.80;;
11121;SDS011;5615;49.304;10.576;2024-03-07T01:01:23;43.83;;;28.77;;
11121;SDS011;5615;49.304;10.576;2024-03-07T01:03:50;44.33;;;29.37;;
11121;SDS011;5615;49.304;10.576;2024-03-07T01:06:16;46.40;;;28.30;;
11121;SDS011;5615;49.304;10.576;2024-03-07T01:08:45;51.47;;;31.07;;
11121;SDS011;5615;49.304;10.576;2024-03-07T01:11:13;44.83;;;28.77;;
11121;SDS011;5615;49.304;10.576;2024-03-07T01:13:40;50.43;;;30.20;;
11121;SDS011;5615;49.304;10.576;2024-03-07T01:16:07;50.70;;;31.50;;
11121;SDS011;5615;49.304;10.576;2024-03-07T01:18:37;51.33;;;31.97;;
11121;SDS011;5615;49.304;10.576;2024-03-07T01:21:04;47.03;;;30.87;;
11121;SDS011;5615;49.304;10.576;2024-03-07T01:23:34;52.67;;;32.37;;
11121;SDS011;5615;49.304;10.576;2024-03-07T01:26:03;53.53;;;31.80;;
11121;SDS011;5615;49.304;10.576;2024-03-07T01:28:29;50.73;;;32.23;;
11121;SDS011;5615;49.304;10.576;2024-03-07T01:30:58;51.87;;;32.93;;
11121;SDS011;5615;49.304;10.576;2024-03-07T01:33:25;55.93;;;33.13;;
11121;SDS011;5615;49.304;10.576;2024-03-07T01:35:53;52.90;;;31.43;;
11121;SDS011;5615;49.304;10.576;2024-03-07T01:38:20;54.87;;;32.47;;
11121;SDS011;5615;49.304;10.576;2024-03-07T01:40:47;50.50;;;32.10;;
11121;SDS011;5615;49.304;10.576;2024-03-07T01:43:17;54.03;;;33.77;;
11121;SDS011;5615;49.304;10.576;2024-03-07T01:45:46;58.33;;;34.17;;
11121;SDS011;5615;49.304;10.576;2024-03-07T01:48:13;55.53;;;34.13;;
11121;SDS011;5615;49.304;10.576;2024-03-07T01:50:50;52.07;;;32.67;;
11121;SDS011;5615;49.304;10.576;2024-03-07T01:53:17;52.97;;;33.13;;
11121;SDS011;5615;49.304;10.576;2024-03-07T01:55:44;59.80;;;35.33;;
11121;SDS011;5615;49.304;10.576;2024-03-07T01:58:11;57.97;;;35.33;;
11121;SDS011;5615;49.304;10.576;2024-03-07T02:00:49;56.60;;;34.30;;
11121;SDS011;5615;49.304;10.576;2024-03-07T02:03:17;55.80;;;33.90;;
11121;SDS011;5615;49.304;10.576;2024-03-07T02:05:44;54.87;;;33.70;;
11121;SDS011;5615;49.304;10.576;2024-03-07T02:08:12;54.97;;;30.63;;
11121;SDS011;5615;49.304;10.576;2024-03-07T02:10:39;50.53;;;31.27;;
11121;SDS011;5615;49.304;10.576;2024-03-07T02:13:07;45.87;;;28.97;;
11121;SDS011;5615;49.304;10.576;2024-03-07T02:15:35;50.20;;;30.73;;
11121;SDS011;5615;49.304;10.576;2024-03-07T02:18:03;50.80;;;30.33;;
11121;SDS011;5615;49.304;10.576;2024-03-07T02:20:30;44.57;;;28.83;;
11121;SDS011;5615;49.304;10.576;2024-03-07T02:22:59;43.50;;;26.93;;
11121;SDS011;5615;49.304;10.576;2024-03-07T02:25:27;43.37;;;28.50;;
11121;SDS011;5615;49.304;10.576;2024-03-07T02:27:54;41.73;;;27.30;;
11121;SDS011;5615;49.304;10.576;2024-03-07T02:30:29;41.00;;;26.77;;
11121;SDS011;5615;49.304;10.576;2024-03-07T02:32:57;44.67;;;27.27;;
11121;SDS011;5615;49.304;10.576;2024-03-07T02:35:31;37.90;;;24.70;;
11121;SDS011;5615;49.304;10.576;2024-03-07T02:38:02;38.17;;;24.40;;
11121;SDS011;5615;49.304;10.576;2024-03-07T02:40:29;37.87;;;24.57;;
11121;SDS011;5615;49.304;10.576;2024-03-07T02:42:56;36.70;;;23.83;;
11121;SDS011;5615;49.304;10.576;2024-03-07T02:45:23;35.37;;;23.67;;
11121;SDS011;5615;49.304;10.576;2024-03-07T02:47:50;33.60;;;23.83;;
11121;SDS011;5615;49.304;10.576;2024-03-07T02:50:19;37.23;;;23.87;;
11121;SDS011;5615;49.304;10.576;2024-03-07T02:52:50;32.93;;;22.00;;
11121;SDS011;5615;49.304;10.576;2024-03-07T02:55:19;35.47;;;23.03;;
11121;SDS011;5615;49.304;10.576;2024-03-07T02:57:46;34.80;;;22.33;;
11121;SDS011;5615;49.304;10.576;2024-03-07T03:00:12;30.40;;;20.90;;
11121;SDS011;5615;49.304;10.576;2024-03-07T03:02:45;31.50;;;21.90;;
11121;SDS011;5615;49.304;10.576;2024-03-07T03:05:13;34.13;;;22.80;;
11121;SDS011;5615;49.304;10.576;2024-03-07T03:07:40;31.03;;;21.43;;
11121;SDS011;5615;49.304;10.576;2024-03-07T03:10:07;33.10;;;20.47;;
11121;SDS011;5615;49.304;10.576;2024-03-07T03:12:41;29.93;;;20.83;;
11121;SDS011;5615;49.304;10.576;2024-03-07T03:15:07;28.60;;;21.47;;
11121;SDS011;5615;49.304;10.576;2024-03-07T03:17:36;30.37;;;20.77;;
11121;SDS011;5615;49.304;10.576;2024-03-07T03:20:03;30.63;;;20.30;;
11121;SDS011;5615;49.304;10.576;2024-03-07T03:22:40;30.77;;;20.50;;
11121;SDS011;5615;49.304;10.576;2024-03-07T03:25:09;29.07;;;20.93;;
11121;SDS011;5615;49.304;10.576;2024-03-07T03:27:36;29.67;;;19.17;;
11121;SDS011;5615;49.304;10.576;2024-03-07T03:30:05;29.23;;;19.47;;
11121;SDS011;5615;49.304;10.576;2024-03-07T03:32:38;27.63;;;19.97;;
11121;SDS011;5615;49.304;10.576;2024-03-07T03:35:05;29.60;;;20.10;;
11121;SDS011;5615;49.304;10.576;2024-03-07T03:37:33;29.70;;;20.57;;
11121;SDS011;5615;49.304;10.576;2024-03-07T03:40:00;28.83;;;19.33;;
11121;SDS011;5615;49.304;10.576;2024-03-07T03:42:26;27.00;;;19.63;;
11121;SDS011;5615;49.304;10.576;2024-03-07T03:44:53;28.07;;;19.70;;
11121;SDS011;5615;49.304;10.576;2024-03-07T03:47:21;27.20;;;18.37;;
11121;SDS011;5615;49.304;10.576;2024-03-07T03:49:48;25.23;;;18.37;;
11121;SDS011;5615;49.304;10.576;2024-03-07T03:52:15;25.13;;;18.63;;
11121;SDS011;5615;49.304;10.576;2024-03-07T03:54:42;28.37;;;19.37;;
11121;SDS011;5615;49.304;10.576;2024-03-07T03:57:08;26.17;;;19.00;;
11121;SDS011;5615;49.304;10.576;2024-03-07T03:59:35;26.70;;;18.37;;
11121;SDS011;5615;49.304;10.576;2024-03-07T04:02:03;25.87;;;18.20;;
11121;SDS011;5615;49.304;10.576;2024-03-07T04:04:34;29.07;;;18.93;;
11121;SDS011;5615;49.304;10.576;2024-03-07T04:07:06;25.20;;;18.07;;
11121;SDS011;5615;49.304;10.576;2024-03-07T04:09:33;27.27;;;18.90;;
11121;SDS011;5615;49.304;10.576;2024-03-07T04:12:00;25.93;;;17.80;;
11121;SDS011;5615;49.304;10.576;2024-03-07T04:14:30;26.23;;;18.53;;
11121;SDS011;5615;49.304;10.576;2024-03-07T04:16:59;27.23;;;17.97;;
11121;SDS011;5615;49.304;10.576;2024-03-07T04:19:27;27.60;;;17.57;;
11121;SDS011;5615;49.304;10.576;2024-03-07T04:21:59;31.63;;;18.30;;
11121;SDS011;5615;49.304;10.576;2024-03-07T04:24:26;24.67;;;17.87;;
11121;SDS011;5615;49.304;10.576;2024-03-07T04:26:53;24.50;;;17.27;;
11121;SDS011;5615;49.304;10.576;2024-03-07T04:29:20;24.87;;;17.53;;
11121;SDS011;5615;49.304;10.576;2024-03-07T04:31:47;24.97;;;17.73;;
11121;SDS011;5615;49.304;10.576;2024-03-07T04:34:15;22.90;;;17.47;;
11121;SDS011;5615;49.304;10.576;2024-03-07T04:36:41;25.07;;;17.37;;
11121;SDS011;5615;49.304;10.576;2024-03-07T04:39:10;24.57;;;17.40;;
11121;SDS011;5615;49.304;10.576;2024-03-07T04:41:49;25.23;;;16.63;;
11121;SDS011;5615;49.304;10.576;2024-03-07T04:44:18;22.27;;;16.00;;
11121;SDS011;5615;49.304;10.576;2024-03-07T04:46:47;24.47;;;16.97;;
11121;SDS011;5615;49.304;10.576;2024-03-07T04:49:14;22.00;;;16.17;;
11121;SDS011;5615;49.304;10.576;2024-03-07T04:51:41;26.93;;;16.57;;
11121;SDS011;5615;49.304;10.576;2024-03-07T04:54:07;27.40;;;17.63;;
11121;SDS011;5615;49.304;10.576;2024-03-07T04:56:42;26.07;;;16.33;;
11121;SDS011;5615;49.304;10.576;2024-03-07T04:59:09;24.50;;;16.00;;
11121;SDS011;5615;49.304;10.576;2024-03-07T05:01:36;23.77;;;16.23;;
11121;SDS011;5615;49.304;10.576;2024-03-07T05:04:04;24.73;;;16.10;;
11121;SDS011;5615;49.304;10.576;2024-03-07T05:06:32;24.13;;;16.80;;
11121;SDS011;5615;49.304;10.576;2024-03-07T05:09:02;22.90;;;16.43;;
11121;SDS011;5615;49.304;10.576;2024-03-07T05:11:32;22.03;;;15.77;;
11121;SDS011;5615;49.304;10.576;2024-03-07T05:14:01;25.23;;;16.77;;
11121;SDS011;5615;49.304;10.576;2024-03-07T05:16:29;22.80;;;16.40;;
11121;SDS011;5615;49.304;10.576;2024-03-07T05:18:57;22.33;;;15.90;;
11121;SDS011;5615;49.304;10.576;2024-03-07T05:21:24;22.43;;;15.80;;
11121;SDS011;5615;49.304;10.576;2024-03-07T05:24:03;22.67;;;16.67;;
11121;SDS011;5615;49.304;10.576;2024-03-07T05:26:31;23.87;;;16.37;;
11121;SDS011;5615;49.304;10.576;2024-03-07T05:29:02;21.97;;;15.93;;
11121;SDS011;5615;49.304;10.576;2024-03-07T05:31:33;25.00;;;16.23;;
11121;SDS011;5615;49.304;10.576;2024-03-07T05:34:00;21.60;;;15.80;;
11121;SDS011;5615;49.304;10.576;2024-03-07T05:36:28;24.07;;;16.50;;
11121;SDS011;5615;49.304;10.576;2024-03-07T05:38:56;21.23;;;15.73;;
11121;SDS011;5615;49.304;10.576;2024-03-07T05:41:22;19.90;;;15.23;;
11121;SDS011;5615;49.304;10.576;2024-03-07T05:43:50;23.13;;;16.13;;
11121;SDS011;5615;49.304;10.576;2024-03-07T05:46:20;21.83;;;15.80;;
11121;SDS011;5615;49.304;10.576;2024-03-07T05:48:47;23.97;;;15.83;;
11121;SDS011;5615;49.304;10.576;2024-03-07T05:51:20;23.03;;;15.63;;
11121;SDS011;5615;49.304;10.576;2024-03-07T05:53:48;21.33;;;15.80;;
11121;SDS011;5615;49.304;10.576;2024-03-07T05:56:17;22.47;;;14.67;;
11121;SDS011;5615;49.304;10.576;2024-03-07T05:58:44;23.10;;;15.43;;
11121;SDS011;5615;49.304;10.576;2024-03-07T06:01:11;20.67;;;15.27;;
11121;SDS011;5615;49.304;10.576;2024-03-07T06:03:42;22.17;;;15.77;;
11121;SDS011;5615;49.304;10.576;2024-03-07T06:06:13;23.47;;;16.47;;
11121;SDS011;5615;49.304;10.576;2024-03-07T06:08:40;19.83;;;14.93;;
11121;SDS011;5615;49.304;10.576;2024-03-07T06:11:08;19.83;;;14.87;;
11121;SDS011;5615;49.304;10.576;2024-03-07T06:13:35;20.57;;;15.07;;
11121;SDS011;5615;49.304;10.576;2024-03-07T06:16:02;18.97;;;15.37;;
11121;SDS011;5615;49.304;10.576;2024-03-07T06:18:32;24.63;;;17.03;;
11121;SDS011;5615;49.304;10.576;2024-03-07T06:21:04;22.77;;;16.00;;
11121;SDS011;5615;49.304;10.576;2024-03-07T06:23:31;22.17;;;15.90;;
11121;SDS011;5615;49.304;10.576;2024-03-07T06:25:58;22.10;;;16.03;;
11121;SDS011;5615;49.304;10.576;2024-03-07T06:28:31;23.77;;;16.07;;
11121;SDS011;5615;49.304;10.576;2024-03-07T06:31:00;23.37;;;15.77;;
11121;SDS011;5615;49.304;10.576;2024-03-07T06:33:32;22.50;;;16.67;;
11121;SDS011;5615;49.304;10.576;2024-03-07T06:35:59;24.63;;;16.17;;
11121;SDS011;5615;49.304;10.576;2024-03-07T06:38:28;22.57;;;16.27;;
11121;SDS011;5615;49.304;10.576;2024-03-07T06:40:56;22.43;;;16.40;;
11121;SDS011;5615;49.304;10.576;2024-03-07T06:43:23;23.90;;;16.97;;
11121;SDS011;5615;49.304;10.576;2024-03-07T06:45:50;23.67;;;16.83;;
11121;SDS011;5615;49.304;10.576;2024-03-07T06:48:17;24.57;;;17.03;;
11121;SDS011;5615;49.304;10.576;2024-03-07T06:50:43;22.60;;;16.37;;
11121;SDS011;5615;49.304;10.576;2024-03-07T06:53:14;25.53;;;16.37;;
11121;SDS011;5615;49.304;10.576;2024-03-07T06:55:42;22.97;;;16.73;;
11121;SDS011;5615;49.304;10.576;2024-03-07T06:58:08;25.40;;;17.03;;
11121;SDS011;5615;49.304;10.576;2024-03-07T07:00:35;23.70;;;17.07;;
11121;SDS011;5615;49.304;10.576;2024-03-07T07:03:02;26.97;;;17.93;;
11121;SDS011;5615;49.304;10.576;2024-03-07T07:05:31;25.27;;;18.13;;
11121;SDS011;5615;49.304;10.576;2024-03-07T07:07:58;26.60;;;17.73;;
11121;SDS011;5615;49.304;10.576;2024-03-07T07:10:26;26.97;;;17.83;;
11121;SDS011;5615;49.304;10.576;2024-03-07T07:12:56;24.03;;;16.57;;
11121;SDS011;5615;49.304;10.576;2024-03-07T07:15:24;26.47;;;17.70;;
11121;SDS011;5615;49.304;10.576;2024-03-07T07:17:53;27.50;;;19.13;;
11121;SDS011;5615;49.304;10.576;2024-03-07T07:20:20;23.50;;;16.63;;
11121;SDS011;5615;49.304;10.576;2024-03-07T07:22:49;21.67;;;15.37;;
11121;SDS011;5615;49.304;10.576;2024-03-07T07:25:18;22.80;;;15.87;;
11121;SDS011;5615;49.304;10.576;2024-03-07T07:27:46;21.40;;;15.20;;
11121;SDS011;5615;49.304;10.576;2024-03-07T07:30:16;20.77;;;15.33;;
11121;SDS011;5615;49.304;10.576;2024-03-07T07:32:52;21.60;;;15.13;;
11121;SDS011;5615;49.304;10.576;2024-03-07T07:35:20;23.30;;;16.27;;
11121;SDS011;5615;49.304;10.576;2024-03-07T07:37:49;23.60;;;16.20;;
11121;SDS011;5615;49.304;10.576;2024-03-07T07:40:19;23.43;;;16.43;;
11121;SDS011;5615;49.304;10.576;2024-03-07T07:42:48;22.27;;;16.30;;
11121;SDS011;5615;49.304;10.576;2024-03-07T07:45:19;22.03;;;16.53;;
11121;SDS011;5615;49.304;10.576;2024-03-07T07:47:48;22.97;;;16.30;;
11121;SDS011;5615;49.304;10.576;2024-03-07T07:50:15;22.17;;;15.00;;
11121;SDS011;5615;49.304;10.576;2024-03-07T07:52:43;24.47;;;16.30;;
11121;SDS011;5615;49.304;10.576;2024-03-07T07:55:13;23.10;;;16.43;;
11121;SDS011;5615;49.304;10.576;2024-03-07T07:57:43;25.63;;;17.10;;
11121;SDS011;5615;49.304;10.576;2024-03-07T08:00:12;21.70;;;16.03;;
11121;SDS011;5615;49.304;10.576;2024-03-07T08:02:48;24.07;;;17.47;;
11121;SDS011;5615;49.304;10.576;2024-03-07T08:05:16;23.77;;;17.47;;
11121;SDS011;5615;49.304;10.576;2024-03-07T08:07:43;25.77;;;18.10;;
11121;SDS011;5615;49.304;10.576;2024-03-07T08:10:11;22.00;;;16.40;;
11121;SDS011;5615;49.304;10.576;2024-03-07T08:12:37;21.57;;;15.80;;
11121;SDS011;5615;49.304;10.576;2024-03-07T08:15:06;19.87;;;15.70;;
11121;SDS011;5615;49.304;10.576;2024-03-07T08:17:34;20.67;;;15.30;;
11121;SDS011;5615;49.304;10.576;2024-03-07T08:20:02;20.83;;;15.97;;
11121;SDS011;5615;49.304;10.576;2024-03-07T08:22:29;22.93;;;16.70;;
11121;SDS011;5615;49.304;10.576;2024-03-07T08:24:56;22.33;;;17.17;;
11121;SDS011;5615;49.304;10.576;2024-03-07T08:27:23;20.80;;;16.33;;
11121;SDS011;5615;49.304;10.576;2024-03-07T08:29:50;21.90;;;16.07;;
11121;SDS011;5615;49.304;10.576;2024-03-07T08:32:16;22.23;;;16.37;;
11121;SDS011;5615;49.304;10.576;2024-03-07T08:34:44;21.80;;;16.47;;
11121;SDS011;5615;49.304;10.576;2024-03-07T08:37:12;20.77;;;15.20;;
11121;SDS011;5615;49.304;10.576;2024-03-07T08:39:39;21.70;;;16.97;;
11121;SDS011;5615;49.304;10.576;2024-03-07T08:42:05;22.07;;;16.10;;
11121;SDS011;5615;49.304;10.576;2024-03-07T08:44:32;23.03;;;15.70;;
11121;SDS011;5615;49.304;10.576;2024-03-07T08:46:59;25.63;;;17.10;;
11121;SDS011;5615;49.304;10.576;2024-03-07T08:49:26;22.50;;;16.77;;
11121;SDS011;5615;49.304;10.576;2024-03-07T08:51:52;23.63;;;16.27;;
11121;SDS011;5615;49.304;10.576;2024-03-07T08:54:20;22.23;;;16.50;;
11121;SDS011;5615;49.304;10.576;2024-03-07T08:56:47;22.43;;;16.17;;
11121;SDS011;5615;49.304;10.576;2024-03-07T08:59:13;24.03;;;17.63;;
11121;SDS011;5615;49.304;10.576;2024-03-07T09:01:43;21.30;;;16.40;;
11121;SDS011;5615;49.304;10.576;2024-03-07T09:04:09;25.23;;;16.50;;
11121;SDS011;5615;49.304;10.576;2024-03-07T09:06:36;23.33;;;16.83;;
11121;SDS011;5615;49.304;10.576;2024-03-07T09:09:03;22.87;;;16.73;;
11121;SDS011;5615;49.304;10.576;2024-03-07T09:11:35;19.97;;;16.00;;
11121;SDS011;5615;49.304;10.576;2024-03-07T09:14:02;18.60;;;15.63;;
11121;SDS011;5615;49.304;10.576;2024-03-07T09:16:32;19.03;;;15.00;;
11121;SDS011;5615;49.304;10.576;2024-03-07T09:18:59;20.20;;;15.47;;
11121;SDS011;5615;49.304;10.576;2024-03-07T09:21:26;19.40;;;14.23;;
11121;SDS011;5615;49.304;10.576;2024-03-07T09:23:53;21.70;;;16.30;;
11121;SDS011;5615;49.304;10.576;2024-03-07T09:26:20;19.43;;;15.40;;
11121;SDS011;5615;49.304;10.576;2024-03-07T09:28:48;25.30;;;16.00;;
11121;SDS011;5615;49.304;10.576;2024-03-07T09:31:14;20.90;;;16.23;;
11121;SDS011;5615;49.304;10.576;2024-03-07T09:33:41;21.13;;;15.67;;
11121;SDS011;5615;49.304;10.576;2024-03-07T09:36:08;21.83;;;16.20;;
11121;SDS011;5615;49.304;10.576;2024-03-07T09:38:35;22.40;;;15.77;;
11121;SDS011;5615;49.304;10.576;2024-03-07T09:41:01;18.43;;;15.00;;
11121;SDS011;5615;49.304;10.576;2024-03-07T09:43:28;19.40;;;15.87;;
11121;SDS011;5615;49.304;10.576;2024-03-07T09:45:58;21.13;;;15.33;;
11121;SDS011;5615;49.304;10.576;2024-03-07T09:48:26;20.60;;;15.00;;
11121;SDS011;5615;49.304;10.576;2024-03-07T09:50:53;18.87;;;14.83;;
11121;SDS011;5615;49.304;10.576;2024-03-07T09:53:23;18.13;;;14.93;;
11121;SDS011;5615;49.304;10.576;2024-03-07T09:55:50;19.23;;;15.00;;
11121;SDS011;5615;49.304;10.576;2024-03-07T09:58:18;19.17;;;14.73;;
11121;SDS011;5615;49.304;10.576;2024-03-07T10:00:46;18.87;;;15.47;;
11121;SDS011;5615;49.304;10.576;2024-03-07T10:03:17;20.03;;;15.00;;
11121;SDS011;5615;49.304;10.576;2024-03-07T10:05:47;21.70;;;15.10;;
11121;SDS011;5615;49.304;10.576;2024-03-07T10:08:14;17.73;;;14.10;;
11121;SDS011;5615;49.304;10.576;2024-03-07T10:10:43;19.63;;;15.10;;
11121;SDS011;5615;49.304;10.576;2024-03-07T10:13:11;18.33;;;15.77;;
11121;SDS011;5615;49.304;10.576;2024-03-07T10:15:38;19.57;;;15.20;;
11121;SDS011;5615;49.304;10.576;2024-03-07T10:18:08;18.67;;;15.57;;
11121;SDS011;5615;49.304;10.576;2024-03-07T10:20:37;21.37;;;15.63;;
11121;SDS011;5615;49.304;10.576;2024-03-07T10:23:07;19.80;;;16.10;;
11121;SDS011;5615;49.304;10.576;2024-03-07T10:25:33;20.73;;;15.27;;
11121;SDS011;5615;49.304;10.576;2024-03-07T10:28:01;20.60;;;15.43;;
11121;SDS011;5615;49.304;10.576;2024-03-07T10:30:29;19.97;;;15.80;;
11121;SDS011;5615;49.304;10.576;2024-03-07T10:32:56;19.80;;;15.40;;
11121;SDS011;5615;49.304;10.576;2024-03-07T10:35:24;18.53;;;15.30;;
11121;SDS011;5615;49.304;10.576;2024-03-07T10:37:53;20.07;;;16.33;;
11121;SDS011;5615;49.304;10.576;2024-03-07T10:40:20;20.07;;;15.67;;
11121;SDS011;5615;49.304;10.576;2024-03-07T10:42:47;18.50;;;15.20;;
11121;SDS011;5615;49.304;10.576;2024-03-07T10:45:18;17.87;;;15.50;;
11121;SDS011;5615;49.304;10.576;2024-03-07T10:47:47;18.70;;;15.80;;
11121;SDS011;5615;49.304;10.576;2024-03-07T10:50:19;21.97;;;15.47;;
11121;SDS011;5615;49.304;10.576;2024-03-07T10:52:58;18.27;;;15.50;;
11121;SDS011;5615;49.304;10.576;2024-03-07T10:55:30;19.83;;;15.43;;
11121;SDS011;5615;49.304;10.576;2024-03-07T10:58:05;20.00;;;15.40;;
11121;SDS011;5615;49.304;10.576;2024-03-07T11:00:39;20.77;;;15.20;;
11121;SDS011;5615;49.304;10.576;2024-03-07T11:03:10;19.37;;;15.50;;
11121;SDS011;5615;49.304;10.576;2024-03-07T11:05:38;19.53;;;15.60;;
11121;SDS011;5615;49.304;10.576;2024-03-07T11:08:09;19.03;;;15.80;;
11121;SDS011;5615;49.304;10.576;2024-03-07T11:10:37;18.83;;;14.67;;
11121;SDS011;5615;49.304;10.576;2024-03-07T11:13:04;21.37;;;15.17;;
11121;SDS011;5615;49.304;10.576;2024-03-07T11:15:35;18.73;;;14.70;;
11121;SDS011;5615;49.304;10.576;2024-03-07T11:18:04;17.53;;;14.43;;
11121;SDS011;5615;49.304;10.576;2024-03-07T11:20:34;16.73;;;14.93;;
11121;SDS011;5615;49.304;10.576;2024-03-07T11:23:02;16.57;;;14.17;;
11121;SDS011;5615;49.304;10.576;2024-03-07T11:25:53;15.70;;;13.93;;
11121;SDS011;5615;49.304;10.576;2024-03-07T11:28:27;18.17;;;14.67;;
11121;SDS011;5615;49.304;10.576;2024-03-07T11:36:43;15.30;;;12.90;;
11121;SDS011;5615;49.304;10.576;2024-03-07T11:42:07;16.17;;;13.70;;
11121;SDS011;5615;49.304;10.576;2024-03-07T11:44:34;16.50;;;13.33;;
11121;SDS011;5615;49.304;10.576;2024-03-07T11:47:03;15.77;;;13.10;;
11121;SDS011;5615;49.304;10.576;2024-03-07T11:49:33;14.98;;;13.35;;
11121;SDS011;5615;49.304;10.576;2024-03-07T11:52:01;14.68;;;13.10;;
11121;SDS011;5615;49.304;10.576;2024-03-07T11:54:29;13.73;;;12.18;;
11121;SDS011;5615;49.304;10.576;2024-03-07T11:56:58;15.65;;;12.60;;
11121;SDS011;5615;49.304;10.576;2024-03-07T11:59:25;15.15;;;12.40;;
11121;SDS011;5615;49.304;10.576;2024-03-07T12:01:57;13.73;;;12.10;;
11121;SDS011;5615;49.304;10.576;2024-03-07T12:04:26;14.70;;;13.10;;
11121;SDS011;5615;49.304;10.576;2024-03-07T12:06:53;14.32;;;12.82;;
11121;SDS011;5615;49.304;10.576;2024-03-07T12:09:19;15.52;;;13.38;;
11121;SDS011;5615;49.304;10.576;2024-03-07T12:11:49;16.80;;;13.17;;
11121;SDS011;5615;49.304;10.576;2024-03-07T12:14:19;15.93;;;12.97;;
11121;SDS011;5615;49.304;10.576;2024-03-07T12:16:46;15.53;;;13.40;;
11121;SDS011;5615;49.304;10.576;2024-03-07T12:19:13;16.25;;;12.80;;
11121;SDS011;5615;49.304;10.576;2024-03-07T12:21:42;13.27;;;11.93;;
11121;SDS011;5615;49.304;10.576;2024-03-07T12:24:13;14.00;;;12.50;;
11121;SDS011;5615;49.304;10.576;2024-03-07T12:26:41;14.93;;;13.32;;
11121;SDS011;5615;49.304;10.576;2024-03-07T12:29:08;14.70;;;12.73;;
11121;SDS011;5615;49.304;10.576;2024-03-07T12:31:38;14.80;;;13.10;;
11121;SDS011;5615;49.304;10.576;2024-03-07T12:34:05;15.73;;;13.35;;
11121;SDS011;5615;49.304;10.576;2024-03-07T12:36:34;14.55;;;12.43;;
11121;SDS011;5615;49.304;10.576;2024-03-07T12:39:10;15.55;;;13.68;;
11121;SDS011;5615;49.304;10.576;2024-03-07T12:41:50;15.57;;;13.98;;
11121;SDS011;5615;49.304;10.576;2024-03-07T12:44:19;16.38;;;12.88;;
11121;SDS011;5615;49.304;10.576;2024-03-07T12:46:47;15.38;;;12.38;;
11121;SDS011;5615;49.304;10.576;2024-03-07T12:49:14;16.83;;;14.18;;
11121;SDS011;5615;49.304;10.576;2024-03-07T12:51:41;14.10;;;12.60;;
11121;SDS011;5615;49.304;10.576;2024-03-07T12:54:08;15.27;;;13.70;;
11121;SDS011;5615;49.304;10.576;2024-03-07T12:56:35;14.93;;;13.43;;
11121;SDS011;5615;49.304;10.576;2024-03-07T12:59:02;14.10;;;12.70;;
11121;SDS011;5615;49.304;10.576;2024-03-07T13:01:29;13.75;;;12.18;;
11121;SDS011;5615;49.304;10.576;2024-03-07T13:03:59;15.32;;;13.73;;
11121;SDS011;5615;49.304;10.576;2024-03-07T13:06:26;15.45;;;13.73;;
11121;SDS011;5615;49.304;10.576;2024-03-07T13:08:54;15.00;;;13.50;;
11121;SDS011;5615;49.304;10.576;2024-03-07T13:11:22;14.30;;;12.82;;
11121;SDS011;5615;49.304;10.576;2024-03-07T13:13:52;14.63;;;13.13;;
11121;SDS011;5615;49.304;10.576;2024-03-07T13:16:20;14.07;;;12.57;;
11121;SDS011;5615;49.304;10.576;2024-03-07T13:18:46;15.23;;;13.63;;
11121;SDS011;5615;49.304;10.576;2024-03-07T13:21:14;14.65;;;13.10;;
11121;SDS011;5615;49.304;10.576;2024-03-07T13:23:43;16.55;;;13.95;;
11121;SDS011;5615;49.304;10.576;2024-03-07T13:26:09;16.05;;;13.63;;
11121;SDS011;5615;49.304;10.576;2024-03-07T13:28:41;14.70;;;13.20;;
11121;SDS011;5615;49.304;10.576;2024-03-07T13:31:09;16.10;;;13.80;;
11121;SDS011;5615;49.304;10.576;2024-03-07T13:33:37;16.03;;;14.33;;
11121;SDS011;5615;49.304;10.576;2024-03-07T13:36:04;16.13;;;14.20;;
11121;SDS011;5615;49.304;10.576;2024-03-07T13:38:33;21.23;;;14.97;;
11121;SDS011;5615;49.304;10.576;2024-03-07T13:41:01;18.43;;;14.60;;
11121;SDS011;5615;49.304;10.576;2024-03-07T13:43:29;18.07;;;14.33;;
11121;SDS011;5615;49.304;10.576;2024-03-07T13:45:55;18.23;;;15.60;;
11121;SDS011;5615;49.304;10.576;2024-03-07T13:48:22;17.70;;;14.77;;
11121;SDS011;5615;49.304;10.576;2024-03-07T13:50:49;20.30;;;15.60;;
11121;SDS011;5615;49.304;10.576;2024-03-07T13:53:17;17.43;;;14.63;;
11121;SDS011;5615;49.304;10.576;2024-03-07T13:55:59;16.10;;;14.37;;
11121;SDS011;5615;49.304;10.576;2024-03-07T13:59:28;18.67;;;15.17;;
11121;SDS011;5615;49.304;10.576;2024-03-07T14:02:08;19.13;;;15.03;;
11121;SDS011;5615;49.304;10.576;2024-03-07T14:05:00;20.97;;;15.43;;
11121;SDS011;5615;49.304;10.576;2024-03-07T14:07:44;17.20;;;15.00;;
11121;SDS011;5615;49.304;10.576;2024-03-07T14:13:33;19.80;;;15.47;;
11121;SDS011;5615;49.304;10.576;2024-03-07T14:16:25;19.50;;;15.87;;
11121;SDS011;5615;49.304;10.576;2024-03-07T14:19:36;19.37;;;15.27;;
11121;SDS011;5615;49.304;10.576;2024-03-07T14:22:54;19.97;;;15.77;;
11121;SDS011;5615;49.304;10.576;2024-03-07T14:25:38;18.43;;;14.70;;
11121;SDS011;5615;49.304;10.576;2024-03-07T14:28:15;20.93;;;14.90;;
11121;SDS011;5615;49.304;10.576;2024-03-07T14:30:55;19.13;;;15.03;;
11121;SDS011;5615;49.304;10.576;2024-03-07T14:33:25;19.30;;;15.57;;
11121;SDS011;5615;49.304;10.576;2024-03-07T14:36:04;17.50;;;14.97;;
11121;SDS011;5615;49.304;10.576;2024-03-07T14:38:46;18.87;;;14.27;;
11121;SDS011;5615;49.304;10.576;2024-03-07T14:41:15;18.40;;;14.87;;
11121;SDS011;5615;49.304;10.576;2024-03-07T14:43:43;19.90;;;15.70;;
11121;SDS011;5615;49.304;10.576;2024-03-07T14:46:13;18.40;;;13.50;;